createdAt,value
2019-01-26T00:00:50.313Z,1.04
2019-01-26T00:01:49.510Z,1.42
2019-01-26T00:02:51.616Z,1.42
2019-01-26T00:03:49.967Z,1.23
2019-01-26T00:04:57.632Z,1.23
2019-01-26T00:05:50.472Z,1.61
2019-01-26T00:06:57.118Z,1.42
2019-01-26T00:07:54.150Z,1.61
2019-01-26T00:08:54.139Z,1.70
2019-01-26T00:09:58.622Z,1.89
2019-01-26T00:10:56.617Z,1.51
2019-01-26T00:11:52.612Z,1.70
2019-01-26T00:12:52.095Z,1.79
2019-01-26T00:14:00.110Z,1.89
2019-01-26T00:14:56.077Z,1.70
2019-01-26T00:15:51.783Z,1.61
2019-01-26T00:16:53.609Z,1.79
2019-01-26T00:17:57.162Z,1.98
2019-01-26T00:18:54.111Z,2.08
2019-01-26T00:19:53.593Z,1.79
2019-01-26T00:20:54.577Z,1.98
2019-01-26T00:21:54.615Z,2.17
2019-01-26T00:22:52.940Z,2.17
2019-01-26T00:23:55.143Z,2.17
2019-01-26T00:25:04.371Z,2.17
2019-01-26T00:25:57.109Z,1.98
2019-01-26T00:26:53.676Z,1.98
2019-01-26T00:27:54.931Z,2.17
2019-01-26T00:28:55.104Z,2.26
2019-01-26T00:29:56.110Z,2.64
2019-01-26T00:30:54.311Z,2.83
2019-01-26T00:31:56.106Z,2.83
2019-01-26T00:33:04.074Z,3.31
2019-01-26T00:33:56.611Z,3.50
2019-01-26T00:34:55.062Z,3.59
2019-01-26T00:35:56.562Z,4.53
2019-01-26T00:36:56.418Z,4.53
2019-01-26T00:37:55.540Z,5.29
2019-01-26T00:38:57.608Z,5.77
2019-01-26T00:39:55.940Z,6.14
2019-01-26T00:40:58.159Z,6.81
2019-01-26T00:41:57.506Z,6.99
2019-01-26T00:42:58.087Z,8.22
2019-01-26T00:44:12.114Z,8.41
2019-01-26T00:44:58.653Z,9.45
2019-01-26T00:46:00.611Z,9.74
2019-01-26T00:46:58.606Z,10.02
2019-01-26T00:47:59.110Z,10.97
2019-01-26T00:49:13.146Z,10.78
2019-01-26T00:49:59.106Z,11.35
2019-01-26T00:50:59.653Z,11.54
2019-01-26T00:51:59.113Z,12.01
2019-01-26T00:52:58.567Z,11.91
2019-01-26T00:54:00.111Z,12.38
2019-01-26T00:55:02.147Z,12.85
2019-01-26T00:56:00.113Z,13.14
2019-01-26T00:56:59.717Z,13.42
2019-01-26T00:58:00.613Z,13.71
2019-01-26T00:59:00.775Z,13.90
2019-01-26T00:59:59.078Z,14.47
2019-01-26T01:00:59.187Z,14.47
2019-01-26T01:02:03.106Z,15.12
2019-01-26T01:03:03.106Z,15.12
2019-01-26T01:04:01.105Z,15.88
2019-01-26T01:05:03.605Z,16.45
2019-01-26T01:06:01.073Z,16.93
2019-01-26T01:06:59.951Z,16.83
2019-01-26T01:08:00.054Z,17.79
2019-01-26T01:09:03.577Z,17.87
2019-01-26T01:10:01.439Z,18.15
2019-01-26T01:11:02.156Z,18.54
2019-01-26T01:12:01.194Z,19.49
2019-01-26T01:13:05.843Z,19.39
2019-01-26T01:14:01.053Z,19.77
2019-01-26T01:15:09.127Z,20.62
2019-01-26T01:16:02.062Z,20.72
2019-01-26T01:17:01.673Z,21.28
2019-01-26T01:19:35.389Z,22.89
2019-01-26T01:20:34.352Z,23.18
2019-01-26T01:21:36.354Z,23.27
2019-01-26T01:22:38.142Z,24.31
2019-01-26T01:23:34.128Z,24.03
2019-01-26T01:24:35.902Z,25.35
2019-01-26T01:25:41.403Z,25.35
2019-01-26T01:26:37.853Z,25.82
2019-01-26T01:27:34.813Z,26.01
2019-01-26T01:28:36.894Z,26.39
2019-01-26T01:29:38.899Z,26.77
2019-01-26T01:30:36.367Z,26.96
2019-01-26T01:31:40.362Z,28.00
2019-01-26T01:32:37.393Z,28.28
2019-01-26T01:33:42.409Z,28.47
2019-01-26T01:34:35.887Z,28.47
2019-01-26T01:35:37.256Z,28.76
2019-01-26T01:36:51.895Z,28.76
2019-01-26T01:37:36.331Z,28.85
2019-01-26T01:38:36.526Z,29.14
2019-01-26T01:39:36.758Z,28.95
2019-01-26T01:40:38.455Z,29.33
2019-01-26T01:41:38.059Z,29.33
2019-01-26T01:42:38.307Z,29.61
2019-01-26T01:43:37.260Z,29.71
2019-01-26T01:44:37.466Z,29.99
2019-01-26T01:45:37.664Z,30.36
2019-01-26T01:46:42.991Z,30.46
2019-01-26T01:47:39.939Z,30.46
2019-01-26T01:48:38.231Z,30.74
2019-01-26T01:49:42.389Z,30.65
2019-01-26T01:50:40.391Z,30.84
2019-01-26T01:51:40.391Z,30.74
2019-01-26T01:52:38.939Z,22.89
2019-01-26T01:53:40.931Z,20.15
2019-01-26T01:54:40.899Z,20.62
2019-01-26T01:55:40.889Z,19.77
2019-01-26T01:56:43.391Z,19.58
2019-01-26T01:57:39.587Z,19.96
2019-01-26T01:58:39.781Z,19.96
2019-01-26T01:59:51.150Z,21.38
2019-01-26T02:00:41.893Z,23.08
2019-01-26T02:01:51.960Z,24.22
2019-01-26T02:02:41.903Z,24.88
2019-01-26T02:03:41.712Z,25.63
2019-01-26T02:04:40.805Z,25.45
2019-01-26T02:05:42.909Z,24.50
2019-01-26T02:06:42.900Z,23.74
2019-01-26T02:07:42.366Z,22.89
2019-01-26T02:08:41.585Z,22.71
2019-01-26T02:09:45.437Z,21.76
2019-01-26T02:10:41.901Z,21.76
2019-01-26T02:11:43.916Z,21.85
2019-01-26T02:12:45.898Z,21.57
2019-01-26T02:13:49.400Z,21.38
2019-01-26T02:14:44.397Z,20.62
2019-01-26T02:15:45.844Z,20.15
2019-01-26T02:16:50.085Z,20.06
2019-01-26T02:18:04.146Z,20.25
2019-01-26T02:18:44.892Z,20.34
2019-01-26T02:19:45.442Z,20.43
2019-01-26T02:20:44.644Z,20.90
2019-01-26T02:21:43.733Z,21.19
2019-01-26T02:22:47.890Z,21.47
2019-01-26T02:23:45.890Z,21.47
2019-01-26T02:24:51.892Z,21.57
2019-01-26T02:25:52.423Z,22.04
2019-01-26T02:26:51.395Z,21.95
2019-01-26T02:27:44.837Z,22.23
2019-01-26T02:28:45.067Z,22.14
2019-01-26T02:29:46.892Z,22.04
2019-01-26T02:30:45.493Z,22.61
2019-01-26T02:31:49.434Z,22.80
2019-01-26T02:32:47.391Z,23.74
2019-01-26T02:33:47.896Z,24.69
2019-01-26T02:34:46.226Z,25.26
2019-01-26T02:35:48.397Z,25.07
2019-01-26T02:36:48.430Z,24.69
2019-01-26T02:37:46.792Z,24.03
2019-01-26T02:38:48.454Z,23.19
2019-01-26T02:39:50.898Z,22.90
2019-01-26T02:40:48.843Z,22.71
2019-01-26T02:41:50.077Z,22.81
2019-01-26T02:42:49.947Z,22.81
2019-01-26T02:43:48.846Z,23.00
2019-01-26T02:44:51.897Z,23.19
2019-01-26T02:45:49.896Z,23.74
2019-01-26T02:46:49.897Z,23.28
2019-01-26T02:47:49.947Z,24.04
2019-01-26T02:48:56.402Z,23.94
2019-01-26T02:50:00.389Z,24.23
2019-01-26T02:50:48.836Z,24.70
2019-01-26T02:51:49.897Z,24.32
2019-01-26T02:52:50.890Z,24.61
2019-01-26T02:53:50.893Z,25.08
2019-01-26T02:54:53.389Z,25.37
2019-01-26T02:55:52.365Z,25.27
2019-01-26T02:56:49.860Z,25.84
2019-01-26T02:57:51.939Z,25.84
2019-01-26T02:58:51.195Z,25.84
2019-01-26T02:59:51.898Z,25.84
2019-01-26T03:00:50.427Z,25.93
2019-01-26T03:01:54.408Z,26.21
2019-01-26T03:02:51.771Z,26.78
2019-01-26T03:03:58.391Z,26.97
2019-01-26T03:04:57.902Z,27.26
2019-01-26T03:05:53.870Z,27.26
2019-01-26T03:06:52.909Z,27.45
2019-01-26T03:07:51.960Z,27.54
2019-01-26T03:08:55.436Z,27.64
2019-01-26T03:09:54.124Z,27.83
2019-01-26T03:10:53.894Z,27.83
2019-01-26T03:11:52.147Z,28.30
2019-01-26T03:12:52.223Z,28.49
2019-01-26T03:13:52.432Z,28.77
2019-01-26T03:14:53.685Z,29.24
2019-01-26T03:15:52.763Z,29.53
2019-01-26T03:16:52.963Z,29.91
2019-01-26T03:17:55.153Z,30.38
2019-01-26T03:18:56.936Z,30.95
2019-01-26T03:19:53.512Z,31.80
2019-01-26T03:20:53.750Z,32.09
2019-01-26T03:21:55.906Z,32.37
2019-01-26T03:22:55.901Z,32.75
2019-01-26T03:23:57.891Z,33.31
2019-01-26T03:25:00.900Z,33.69
2019-01-26T03:25:54.605Z,34.45
2019-01-26T03:27:09.402Z,35.02
2019-01-26T03:27:55.951Z,35.77
2019-01-26T03:28:56.176Z,36.35
2019-01-26T03:29:55.303Z,37.10
2019-01-26T03:31:17.943Z,37.76
2019-01-26T03:31:55.575Z,38.24
2019-01-26T03:32:58.368Z,38.71
2019-01-26T03:33:55.934Z,39.00
2019-01-26T03:35:12.861Z,39.47
2019-01-26T03:35:57.890Z,40.32
2019-01-26T03:36:56.464Z,40.89
2019-01-26T03:37:56.674Z,41.74
2019-01-26T03:38:58.397Z,42.30
2019-01-26T03:39:56.976Z,43.16
2019-01-26T03:40:58.230Z,43.73
2019-01-26T03:41:58.892Z,44.48
2019-01-26T03:43:05.400Z,45.05
2019-01-26T03:43:59.479Z,45.90
2019-01-26T03:46:40.222Z,47.04
2019-01-26T03:47:29.823Z,47.61
2019-01-26T03:48:29.898Z,47.80
2019-01-26T03:49:37.948Z,48.46
2019-01-26T03:50:33.959Z,49.31
2019-01-26T03:51:30.414Z,50.07
2019-01-26T03:52:30.605Z,51.30
2019-01-26T03:53:32.443Z,52.91
2019-01-26T03:54:31.017Z,54.80
2019-01-26T03:55:34.399Z,56.03
2019-01-26T03:56:31.372Z,58.21
2019-01-26T03:57:33.671Z,60.10
2019-01-26T03:58:33.445Z,61.43
2019-01-26T03:59:32.930Z,62.94
2019-01-26T04:00:32.021Z,65.02
2019-01-26T04:01:35.947Z,66.35
2019-01-26T04:02:34.918Z,67.58
2019-01-26T04:03:32.903Z,68.52
2019-01-26T04:04:40.477Z,70.14
2019-01-26T04:05:32.634Z,70.70
2019-01-26T04:06:33.952Z,71.46
2019-01-26T04:07:36.945Z,71.84
2019-01-26T04:08:36.983Z,72.34
2019-01-26T04:09:39.956Z,72.97
2019-01-26T04:10:33.702Z,74.21
2019-01-26T04:11:35.447Z,74.40
2019-01-26T04:12:35.614Z,74.62
2019-01-26T04:13:35.943Z,75.95
2019-01-26T04:14:38.187Z,76.10
2019-01-26T04:15:36.445Z,76.04
2019-01-26T04:16:41.457Z,76.29
2019-01-26T04:17:51.448Z,76.48
2019-01-26T04:19:06.523Z,76.19
2019-01-26T04:19:36.982Z,76.67
2019-01-26T04:20:38.950Z,76.67
2019-01-26T04:21:35.355Z,77.08
2019-01-26T04:22:38.912Z,76.86
2019-01-26T04:23:58.465Z,76.86
2019-01-26T04:24:35.909Z,76.80
2019-01-26T04:25:37.046Z,76.57
2019-01-26T04:26:39.956Z,76.70
2019-01-26T04:27:39.944Z,76.80
2019-01-26T04:28:39.951Z,76.57
2019-01-26T04:29:37.907Z,76.70
2019-01-26T04:30:38.980Z,76.89
2019-01-26T04:31:42.016Z,77.46
2019-01-26T04:32:52.943Z,77.27
2019-01-26T04:33:44.453Z,77.65
2019-01-26T04:34:39.406Z,78.13
2019-01-26T04:35:38.898Z,78.31
2019-01-26T04:36:58.983Z,78.98
2019-01-26T04:38:01.961Z,79.17
2019-01-26T04:38:38.950Z,79.55
2019-01-26T04:39:39.411Z,80.02
2019-01-26T04:40:48.416Z,79.64
2019-01-26T04:41:40.969Z,79.93
2019-01-26T04:42:41.046Z,80.58
2019-01-26T04:43:41.898Z,81.15
2019-01-26T04:44:43.393Z,81.25
2019-01-26T04:46:02.448Z,80.87
2019-01-26T04:46:47.496Z,80.96
2019-01-26T04:47:41.026Z,81.34
2019-01-26T04:48:40.281Z,81.44
2019-01-26T04:50:03.898Z,81.34
2019-01-26T04:50:43.448Z,81.63
2019-01-26T04:51:41.708Z,81.72
2019-01-26T04:53:01.868Z,82.01
2019-01-26T04:53:46.465Z,81.72
2019-01-26T04:55:19.630Z,82.57
2019-01-26T05:01:27.059Z,84.56
2019-01-26T05:04:19.216Z,85.32
2019-01-26T05:07:02.701Z,85.70
2019-01-26T05:07:26.712Z,86.18
2019-01-26T05:09:57.074Z,86.83
2019-01-26T05:10:57.257Z,87.21
2019-01-26T05:11:55.449Z,87.59
2019-01-26T05:13:11.396Z,87.88
2019-01-26T05:13:56.338Z,87.88
2019-01-26T05:14:57.940Z,88.45
2019-01-26T05:17:38.812Z,89.11
2019-01-26T05:18:34.901Z,89.30
2019-01-26T05:19:30.360Z,89.68
2019-01-26T05:20:30.503Z,89.87
2019-01-26T05:21:33.633Z,90.34
2019-01-26T05:22:30.115Z,90.44
2019-01-26T05:23:30.951Z,91.00
2019-01-26T05:24:32.893Z,91.00
2019-01-26T05:25:35.347Z,91.38
2019-01-26T05:26:33.655Z,91.57
2019-01-26T05:27:57.358Z,91.86
2019-01-26T05:30:26.042Z,92.61
2019-01-26T05:31:04.133Z,92.80
2019-01-26T05:32:07.588Z,93.56
2019-01-26T05:33:08.211Z,93.27
2019-01-26T05:34:31.189Z,93.94
2019-01-26T05:35:15.163Z,94.32
2019-01-26T05:36:02.730Z,94.23
2019-01-26T05:37:34.838Z,94.89
2019-01-26T05:38:26.132Z,95.26
2019-01-26T05:39:07.149Z,95.74
2019-01-26T05:40:06.183Z,96.31
2019-01-26T05:41:07.865Z,96.12
2019-01-26T05:42:27.691Z,96.31
2019-01-26T05:43:06.663Z,97.25
2019-01-26T05:44:08.195Z,96.97
2019-01-26T05:45:07.379Z,96.97
2019-01-26T05:48:01.230Z,98.96
2019-01-26T05:48:39.239Z,98.77
2019-01-26T05:49:39.692Z,99.05
2019-01-26T05:50:40.899Z,98.77
2019-01-26T05:51:45.562Z,98.77
2019-01-26T05:52:37.506Z,99.81
2019-01-26T05:53:45.291Z,99.99
2019-01-26T05:54:44.251Z,99.81
2019-01-26T05:55:42.693Z,99.71
2019-01-26T05:56:42.991Z,99.62
2019-01-26T05:57:46.234Z,99.62
2019-01-26T05:58:40.245Z,99.33
2019-01-26T05:59:41.736Z,99.52
2019-01-26T06:00:40.741Z,99.33
2019-01-26T06:01:41.502Z,99.33
2019-01-26T06:02:49.189Z,99.71
2019-01-26T06:03:39.405Z,99.71
2019-01-26T06:04:40.617Z,99.99
2019-01-26T06:05:43.745Z,99.52
2019-01-26T06:06:41.743Z,99.43
2019-01-26T06:07:41.716Z,99.52
2019-01-26T06:08:40.177Z,99.52
2019-01-26T06:09:46.371Z,99.71
2019-01-26T06:12:14.775Z,99.81
2019-01-26T06:13:38.194Z,99.99
2019-01-26T06:16:14.250Z,99.99
2019-01-26T06:22:59.477Z,99.71
2019-01-26T06:24:07.719Z,99.99
2019-01-26T06:26:50.404Z,99.99
2019-01-26T06:27:26.866Z,99.99
2019-01-26T06:28:47.494Z,99.81
2019-01-26T06:29:26.867Z,99.99
2019-01-26T06:30:29.602Z,99.81
2019-01-26T06:31:28.471Z,99.99
2019-01-26T06:32:40.912Z,99.99
2019-01-26T06:33:49.470Z,99.99
2019-01-26T06:34:26.312Z,99.99
2019-01-26T06:35:47.539Z,99.99
2019-01-26T06:36:25.794Z,99.99
2019-01-26T06:37:27.903Z,99.99
2019-01-26T06:38:31.368Z,99.99
2019-01-26T06:39:51.065Z,99.99
2019-01-26T06:40:26.482Z,99.99
2019-01-26T06:41:29.384Z,99.99
2019-01-26T06:42:29.523Z,99.99
2019-01-26T06:43:28.927Z,99.99
2019-01-26T06:44:32.399Z,99.99
2019-01-26T06:45:30.966Z,99.99
2019-01-26T06:46:30.374Z,99.99
2019-01-26T06:47:27.724Z,99.58
2019-01-26T06:48:32.489Z,98.96
2019-01-26T06:49:32.294Z,99.05
2019-01-26T06:50:32.711Z,98.96
2019-01-26T06:51:29.524Z,98.06
2019-01-26T06:52:40.661Z,98.39
2019-01-26T06:53:29.361Z,97.63
2019-01-26T06:54:46.372Z,96.83
2019-01-26T06:55:31.868Z,97.54
2019-01-26T06:56:29.876Z,96.40
2019-01-26T06:57:32.874Z,96.40
2019-01-26T06:58:29.461Z,96.26
2019-01-26T06:59:29.661Z,96.69
2019-01-26T07:00:32.868Z,95.64
2019-01-26T07:01:45.923Z,96.07
2019-01-26T07:02:32.913Z,96.02
2019-01-26T07:03:31.916Z,95.64
2019-01-26T07:04:32.909Z,95.55
2019-01-26T07:05:35.474Z,95.26
2019-01-26T07:06:32.416Z,94.89
2019-01-26T07:07:33.893Z,94.74
2019-01-26T07:08:53.926Z,94.42
2019-01-26T07:09:32.952Z,94.42
2019-01-26T07:10:32.924Z,94.04
2019-01-26T07:11:33.438Z,93.65
2019-01-26T07:12:34.422Z,93.89
2019-01-26T07:13:33.174Z,93.46
2019-01-26T07:14:34.872Z,93.89
2019-01-26T07:15:36.947Z,93.13
2019-01-26T07:16:36.779Z,92.94
2019-01-26T07:19:09.272Z,92.90
2019-01-26T07:20:07.196Z,92.94
2019-01-26T07:21:09.270Z,92.85
2019-01-26T07:22:07.088Z,92.94
2019-01-26T07:23:12.737Z,92.28
2019-01-26T07:24:06.550Z,92.47
2019-01-26T07:25:09.614Z,91.90
2019-01-26T07:26:07.122Z,91.90
2019-01-26T07:27:12.996Z,92.00
2019-01-26T07:28:08.575Z,90.95
2019-01-26T07:29:07.710Z,91.05
2019-01-26T07:30:30.118Z,90.86
2019-01-26T07:31:31.124Z,90.48
2019-01-26T07:32:30.478Z,90.29
2019-01-26T07:33:09.553Z,90.10
2019-01-26T07:54:22.490Z,86.31
2019-01-26T07:55:29.151Z,86.88
2019-01-26T07:56:27.615Z,86.31
2019-01-26T07:58:55.704Z,85.55
2019-01-26T07:59:56.654Z,85.36
2019-01-26T08:01:09.160Z,85.46
2019-01-26T08:01:55.317Z,85.17
2019-01-26T08:02:56.143Z,84.89
2019-01-26T08:03:55.206Z,84.89
2019-01-26T08:05:09.774Z,84.80
2019-01-26T08:05:56.788Z,84.51
2019-01-26T08:07:16.655Z,84.70
2019-01-26T08:07:56.216Z,84.80
2019-01-26T08:09:00.214Z,83.94
2019-01-26T08:10:19.154Z,83.94
2019-01-26T08:10:56.695Z,84.04
2019-01-26T08:12:10.848Z,84.04
2019-01-26T08:12:56.267Z,84.13
2019-01-26T08:14:22.712Z,84.23
2019-01-26T08:16:54.726Z,83.94
2019-01-26T08:17:29.282Z,84.42
2019-01-26T08:18:32.228Z,83.94
2019-01-26T08:19:52.778Z,83.85
2019-01-26T08:22:03.225Z,84.04
2019-01-26T08:23:05.174Z,84.32
2019-01-26T08:24:01.778Z,83.75
2019-01-26T08:25:05.243Z,84.04
2019-01-26T08:26:06.269Z,83.94
2019-01-26T08:27:05.539Z,83.28
2019-01-26T08:28:04.718Z,83.56
2019-01-26T08:30:35.035Z,83.47
2019-01-26T08:32:09.564Z,83.28
2019-01-26T08:37:31.780Z,83.47
2019-01-26T08:40:06.400Z,83.75
2019-01-26T08:45:47.502Z,83.00
2019-01-26T10:29:19.520Z,87.40
2019-01-26T10:29:57.977Z,87.87
2019-01-26T10:30:58.168Z,87.87
2019-01-26T10:31:59.987Z,88.25
2019-01-26T10:33:02.010Z,88.16
2019-01-26T10:34:00.578Z,88.16
2019-01-26T10:35:02.586Z,88.63
2019-01-26T10:36:00.974Z,89.20
2019-01-26T10:37:02.023Z,88.73
2019-01-26T10:38:15.040Z,89.29
2019-01-26T10:39:15.043Z,89.29
2019-01-26T10:40:03.530Z,89.39
2019-01-26T10:41:05.819Z,89.20
2019-01-26T10:42:25.540Z,89.20
2019-01-26T10:43:16.039Z,89.20
2019-01-26T10:44:13.233Z,89.58
2019-01-26T10:45:04.001Z,89.58
2019-01-26T10:47:42.212Z,90.15
2019-01-26T10:48:38.721Z,90.24
2019-01-26T10:49:37.044Z,90.19
2019-01-26T10:50:35.686Z,90.76
2019-01-26T10:51:34.725Z,91.14
2019-01-26T10:54:26.878Z,91.71
2019-01-26T10:56:44.184Z,92.09
2019-01-26T10:58:00.229Z,92.38
2019-01-26T10:58:39.668Z,92.47
2019-01-26T10:59:45.132Z,93.08
2019-01-26T11:02:25.720Z,93.23
2019-01-26T11:03:13.376Z,93.32
2019-01-26T11:04:13.173Z,93.89
2019-01-26T11:05:13.054Z,94.37
2019-01-26T11:06:13.134Z,93.89
2019-01-26T11:07:10.591Z,94.18
2019-01-26T11:08:35.088Z,93.51
2019-01-26T11:09:18.629Z,93.99
2019-01-26T11:10:14.603Z,93.51
2019-01-26T11:11:14.054Z,92.94
2019-01-26T11:12:14.181Z,93.80
2019-01-26T11:13:35.073Z,93.99
2019-01-26T11:14:13.844Z,94.27
2019-01-26T11:15:27.599Z,94.27
2019-01-26T11:16:15.075Z,94.18
2019-01-26T11:17:20.104Z,94.93
2019-01-26T11:18:14.138Z,94.65
2019-01-26T11:19:13.564Z,94.56
2019-01-26T11:20:37.555Z,94.93
2019-01-26T11:21:15.225Z,95.03
2019-01-26T11:22:39.054Z,95.31
2019-01-26T11:23:29.171Z,95.22
2019-01-26T11:24:22.562Z,95.79
2019-01-26T11:25:35.547Z,95.88
2019-01-26T11:26:48.941Z,95.88
2019-01-26T11:27:36.883Z,95.69
2019-01-26T11:28:38.824Z,95.88
2019-01-26T11:29:17.683Z,96.08
2019-01-26T11:32:21.013Z,96.17
2019-01-26T11:32:50.036Z,95.50
2019-01-26T11:33:49.986Z,95.50
2019-01-26T11:35:03.472Z,95.88
2019-01-26T11:35:55.359Z,95.69
2019-01-26T11:36:52.018Z,95.98
2019-01-26T11:38:24.149Z,95.69
2019-01-26T11:40:50.401Z,95.50
2019-01-26T11:41:47.318Z,95.41
2019-01-26T11:42:31.801Z,95.31
2019-01-26T11:43:25.649Z,95.12
2019-01-26T11:44:47.557Z,94.65
2019-01-26T11:55:15.082Z,96.73
2019-01-26T11:56:05.975Z,96.92
2019-01-26T11:59:04.276Z,97.59
2019-01-26T11:59:57.268Z,97.50
2019-01-26T12:02:34.377Z,97.97
2019-01-26T12:17:41.916Z,99.99
2019-01-26T12:19:36.214Z,99.99
2019-01-26T12:30:15.224Z,99.99
2019-01-26T13:35:54.707Z,99.99
2019-01-26T13:37:05.103Z,99.99
2019-01-26T13:37:50.576Z,99.99
2019-01-26T13:38:49.782Z,99.99
2019-01-26T13:39:51.598Z,99.99
2019-01-26T13:40:50.185Z,99.99
2019-01-26T13:41:51.122Z,99.99
2019-01-26T13:42:54.079Z,99.99
2019-01-26T13:43:53.786Z,99.99
2019-01-26T13:44:55.517Z,99.99
2019-01-26T13:45:51.028Z,99.99
2019-01-26T13:46:53.236Z,99.99
2019-01-26T13:48:15.063Z,99.99
2019-01-26T13:48:54.517Z,99.99
2019-01-26T13:49:55.561Z,99.99
2019-01-26T13:50:53.564Z,99.99
2019-01-26T13:52:03.661Z,99.99
2019-01-26T13:52:59.172Z,99.99
2019-01-26T13:53:53.372Z,99.99
2019-01-26T13:54:56.079Z,99.99
2019-01-26T13:55:52.710Z,99.99
2019-01-26T13:57:02.842Z,99.99
2019-01-26T13:57:57.736Z,99.99
2019-01-26T13:58:55.151Z,99.99
2019-01-26T13:59:55.072Z,99.99
2019-01-26T14:00:53.563Z,99.99
2019-01-26T14:02:01.564Z,99.99
2019-01-26T14:03:10.540Z,99.99
2019-01-26T14:03:57.022Z,99.99
2019-01-26T14:04:54.156Z,99.99
2019-01-26T14:05:54.268Z,99.99
2019-01-26T14:06:54.382Z,99.99
2019-01-26T14:07:56.579Z,99.99
2019-01-26T14:08:55.747Z,99.99
2019-01-26T14:09:56.571Z,99.99
2019-01-26T14:10:55.021Z,99.99
2019-01-26T14:11:59.102Z,99.99
2019-01-26T14:12:55.496Z,99.99
2019-01-26T14:14:08.739Z,99.99
2019-01-26T14:14:57.597Z,99.99
2019-01-26T14:15:58.412Z,99.99
2019-01-26T14:17:20.382Z,99.99
2019-01-26T14:17:58.082Z,99.99
2019-01-26T14:18:58.046Z,99.99
2019-01-26T14:20:12.774Z,99.99
2019-01-26T14:21:00.902Z,99.99
2019-01-26T14:22:22.552Z,99.99
2019-01-26T14:23:00.616Z,99.99
2019-01-26T14:24:01.074Z,99.99
2019-01-26T14:25:20.104Z,99.99
2019-01-26T14:26:01.062Z,99.99
2019-01-26T14:27:13.577Z,99.99
2019-01-26T14:28:00.511Z,99.99
2019-01-26T14:29:01.070Z,99.99
2019-01-26T14:29:58.269Z,99.99
2019-01-26T14:30:58.718Z,99.99
2019-01-26T14:32:01.052Z,99.99
2019-01-26T14:34:38.174Z,99.99
2019-01-26T14:35:32.253Z,99.99
2019-01-26T14:36:39.738Z,99.99
2019-01-26T14:37:31.767Z,99.99
2019-01-26T14:38:31.265Z,99.99
2019-01-26T14:39:33.281Z,99.99
2019-01-26T14:40:53.623Z,99.99
2019-01-26T14:41:31.732Z,99.99
2019-01-26T14:42:34.430Z,99.99
2019-01-26T14:43:34.334Z,99.99
2019-01-26T14:44:58.799Z,99.99
2019-01-26T14:45:34.245Z,99.99
2019-01-26T14:46:32.461Z,99.99
2019-01-26T14:47:44.468Z,99.99
2019-01-26T14:48:48.285Z,99.99
2019-01-26T14:49:34.772Z,99.99
2019-01-26T14:50:42.736Z,99.99
2019-01-26T14:51:36.836Z,99.99
2019-01-26T14:52:39.379Z,99.99
2019-01-26T14:53:35.288Z,99.99
2019-01-26T14:54:34.913Z,99.99
2019-01-26T14:55:37.789Z,99.99
2019-01-26T14:56:36.832Z,99.99
2019-01-26T14:57:35.496Z,99.99
2019-01-26T14:58:35.584Z,99.99
2019-01-26T14:59:51.733Z,99.99
2019-01-26T15:00:42.864Z,99.99
2019-01-26T15:01:57.789Z,99.99
2019-01-26T15:02:38.271Z,99.99
2019-01-26T15:03:44.264Z,99.99
2019-01-26T15:04:35.458Z,99.99
2019-01-26T15:05:58.291Z,99.54
2019-01-26T15:06:39.779Z,99.54
2019-01-26T15:07:37.790Z,99.54
2019-01-26T15:08:37.812Z,98.97
2019-01-26T15:09:51.783Z,98.59
2019-01-26T15:10:53.240Z,98.97
2019-01-26T15:11:38.278Z,98.68
2019-01-26T15:12:38.250Z,98.02
2019-01-26T15:13:41.767Z,98.02
2019-01-26T15:14:38.096Z,97.83
2019-01-26T15:15:37.309Z,97.55
2019-01-26T15:18:12.651Z,97.07
2019-01-26T15:19:11.167Z,96.69
2019-01-26T15:20:10.873Z,96.50
2019-01-26T15:21:12.375Z,96.03
2019-01-26T15:22:11.826Z,95.65
2019-01-26T15:23:15.731Z,95.65
2019-01-26T15:24:34.601Z,95.74
2019-01-26T15:25:10.527Z,95.93
2019-01-26T15:26:12.157Z,95.07
2019-01-26T15:27:14.150Z,95.46
2019-01-26T15:28:10.731Z,94.51
2019-01-26T15:29:10.926Z,94.98
2019-01-26T15:30:14.413Z,94.79
2019-01-26T15:31:11.251Z,94.79
2019-01-26T15:32:14.119Z,94.32
2019-01-26T15:33:13.144Z,93.94
2019-01-26T15:34:13.796Z,93.65
2019-01-26T15:35:12.619Z,94.23
2019-01-26T15:36:19.679Z,93.94
2019-01-26T15:37:20.290Z,94.13
2019-01-26T15:38:14.194Z,94.23
2019-01-26T15:39:13.651Z,94.60
2019-01-26T15:40:12.849Z,94.23
2019-01-26T15:41:14.694Z,94.70
2019-01-26T15:42:13.165Z,94.70
2019-01-26T15:43:20.156Z,93.94
2019-01-26T15:44:13.482Z,94.70
2019-01-26T15:45:13.683Z,94.32
2019-01-26T15:46:14.610Z,94.51
2019-01-26T15:47:15.660Z,94.70
2019-01-26T15:48:16.197Z,94.42
2019-01-26T15:49:14.465Z,94.42
2019-01-26T15:50:16.151Z,94.03
2019-01-26T15:51:14.745Z,94.42
2019-01-26T15:52:16.652Z,94.32
2019-01-26T15:53:15.614Z,94.13
2019-01-26T15:54:23.419Z,94.13
2019-01-26T15:55:17.189Z,94.23
2019-01-26T15:56:32.789Z,94.03
2019-01-26T15:57:16.952Z,94.23
2019-01-26T15:58:15.896Z,93.65
2019-01-26T15:59:19.782Z,93.84
2019-01-26T16:00:18.108Z,93.27
2019-01-26T16:01:18.273Z,93.65
2019-01-26T16:02:17.103Z,93.65
2019-01-26T16:03:16.693Z,93.32
2019-01-26T16:04:32.658Z,92.90
2019-01-26T16:05:17.606Z,93.08
2019-01-26T16:06:19.343Z,93.04
2019-01-26T16:07:20.643Z,92.90
2019-01-26T16:08:21.303Z,92.85
2019-01-26T16:09:19.685Z,92.18
2019-01-26T16:10:19.613Z,92.28
2019-01-26T16:11:20.300Z,91.99
2019-01-26T16:12:42.607Z,91.71
2019-01-26T16:13:24.684Z,91.71
2019-01-26T16:14:18.501Z,91.90
2019-01-26T16:15:20.649Z,91.33
2019-01-26T16:16:22.651Z,91.33
2019-01-26T16:17:21.613Z,90.86
2019-01-26T16:18:21.178Z,90.86
2019-01-26T16:19:21.147Z,90.00
2019-01-26T16:20:21.154Z,90.19
2019-01-26T16:21:20.652Z,90.29
2019-01-26T16:22:20.739Z,89.81
2019-01-26T16:23:28.607Z,88.87
2019-01-26T16:24:22.609Z,89.43
2019-01-26T16:25:26.223Z,89.25
2019-01-26T16:26:20.309Z,89.25
2019-01-26T16:27:22.153Z,89.34
2019-01-26T16:28:22.608Z,88.68
2019-01-26T16:29:21.000Z,88.87
2019-01-26T16:30:24.652Z,88.39
2019-01-26T16:31:21.219Z,88.77
2019-01-26T16:32:25.972Z,88.10
2019-01-26T16:33:22.620Z,88.01
2019-01-26T16:34:23.654Z,88.20
2019-01-26T16:35:25.652Z,88.20
2019-01-26T16:36:26.630Z,88.10
2019-01-26T16:37:24.702Z,88.01
2019-01-26T16:38:22.291Z,87.25
2019-01-26T16:39:45.156Z,87.06
2019-01-26T16:40:24.690Z,86.59
2019-01-26T16:41:24.666Z,86.59
2019-01-26T16:42:24.648Z,87.25
2019-01-26T16:43:25.600Z,86.97
2019-01-26T16:44:23.445Z,87.06
2019-01-26T16:45:25.641Z,87.25
2019-01-26T16:46:31.905Z,86.87
2019-01-26T16:47:25.670Z,87.25
2019-01-26T16:48:25.648Z,87.25
2019-01-26T16:49:24.348Z,86.97
2019-01-26T16:50:27.736Z,87.54
2019-01-26T16:51:24.589Z,86.68
2019-01-26T16:52:24.795Z,86.87
2019-01-26T16:53:28.647Z,86.21
2019-01-26T16:54:29.252Z,85.64
2019-01-26T16:55:33.149Z,85.83
2019-01-26T16:56:28.143Z,85.55
2019-01-26T16:57:30.762Z,86.21
2019-01-26T16:58:25.977Z,85.93
2019-01-26T16:59:42.149Z,85.93
2019-01-26T17:00:26.339Z,85.45
2019-01-26T17:01:28.153Z,84.88
2019-01-26T17:02:31.674Z,84.88
2019-01-26T17:03:26.903Z,84.78
2019-01-26T17:04:28.147Z,84.22
2019-01-26T17:05:29.148Z,84.50
2019-01-26T17:06:30.112Z,85.17
2019-01-26T17:07:29.797Z,84.31
2019-01-26T17:08:27.677Z,84.31
2019-01-26T17:09:35.107Z,85.07
2019-01-26T17:10:34.375Z,84.41
2019-01-26T17:11:36.686Z,84.59
2019-01-26T17:12:35.166Z,84.41
2019-01-26T17:13:32.174Z,84.59
2019-01-26T17:14:32.690Z,84.03
2019-01-26T17:15:28.916Z,83.65
2019-01-26T17:16:32.647Z,83.17
2019-01-26T17:17:36.201Z,83.17
2019-01-26T17:18:29.547Z,82.98
2019-01-26T17:19:31.650Z,82.32
2019-01-26T17:20:34.859Z,82.60
2019-01-26T17:21:32.251Z,81.75
2019-01-26T17:22:42.406Z,81.66
2019-01-26T17:23:46.147Z,81.47
2019-01-26T17:24:33.605Z,80.80
2019-01-26T17:25:32.625Z,80.24
2019-01-26T17:26:31.994Z,79.95
2019-01-26T17:27:32.685Z,79.66
2019-01-26T17:28:33.151Z,79.57
2019-01-26T17:29:34.201Z,79.10
2019-01-26T17:30:31.676Z,79.28
2019-01-26T17:31:48.498Z,79.34
2019-01-26T17:32:35.142Z,79.00
2019-01-26T17:33:33.643Z,78.39
2019-01-26T17:34:34.899Z,77.48
2019-01-26T17:35:33.608Z,77.86
2019-01-26T17:36:34.673Z,77.39
2019-01-26T17:37:32.886Z,76.63
2019-01-26T17:38:36.651Z,76.54
2019-01-26T17:39:37.155Z,76.31
2019-01-26T17:40:40.152Z,75.36
2019-01-26T17:41:35.356Z,75.59